Time,TemperatureF,DewpointF,PressureIn,WindDirection,WindDirectionDegrees,WindSpeedMPH,WindSpeedGustMPH,Humidity,HourlyPrecipIn,Conditions,Clouds,dailyrainin,SoftwareType,DateUTC
2013-02-10 00:00:00,44.8,16.7,30.39,NNE,32,3.1,11.0,32,-99.99,,,0.00,VWS V14.01,2013-02-10 05:00:00,
2013-02-10 00:30:00,45.1,17.1,30.36,ESE,114,4.5,11.0,32,-99.99,,,0.00,VWS V14.01,2013-02-10 05:30:00,
2013-02-10 01:00:00,44.8,16.7,30.39,ESE,113,6.3,13.0,32,-99.99,,,0.00,VWS V14.01,2013-02-10 06:00:00,
2013-02-10 01:30:00,44.8,15.3,30.39,South,180,0.0,11.0,30,-99.99,,,0.00,VWS V14.01,2013-02-10 06:30:00,
2013-02-10 02:00:00,44.6,15.1,30.39,SE,140,2.7,12.5,30,-99.99,,,0.00,VWS V14.01,2013-02-10 07:00:00,
2013-02-10 02:30:00,44.8,13.7,30.36,ESE,113,2.7,13.0,28,-99.99,,,0.00,VWS V14.01,2013-02-10 07:30:00,
2013-02-10 03:00:00,44.6,14.3,30.36,South,178,0.0,10.5,29,-99.99,,,0.00,VWS V14.01,2013-02-10 08:00:00,
2013-02-10 03:30:00,44.6,13.5,30.39,East,97,0.0,9.6,28,-99.99,,,0.00,VWS V14.01,2013-02-10 08:30:00,
2013-02-10 04:00:00,45.1,14.0,30.36,WSW,255,4.9,11.0,28,-99.99,,,0.00,VWS V14.01,2013-02-10 09:00:00,
2013-02-10 04:30:00,45.0,13.8,30.36,SE,134,3.6,12.5,28,-99.99,,,0.00,VWS V14.01,2013-02-10 09:30:00,
2013-02-10 05:00:00,45.3,14.9,30.36,SE,126,5.8,16.8,29,-99.99,,,0.00,VWS V14.01,2013-02-10 10:00:00,
2013-02-10 05:30:00,45.1,15.6,30.36,SE,134,0.0,12.1,30,-99.99,,,0.00,VWS V14.01,2013-02-10 10:30:00,
2013-02-10 06:00:00,45.0,16.2,30.36,East,79,5.8,15.2,31,-99.99,,,0.00,VWS V14.01,2013-02-10 11:00:00,
2013-02-10 06:30:00,44.6,15.1,30.36,South,189,4.9,13.9,30,-99.99,,,0.00,VWS V14.01,2013-02-10 11:30:00,
2013-02-10 07:00:00,44.1,13.9,30.39,SE,135,0.0,17.7,29,-99.99,,,0.00,VWS V14.01,2013-02-10 12:00:00,
2013-02-10 07:30:00,43.5,13.4,30.39,South,172,4.0,12.1,29,-99.99,,,0.00,VWS V14.01,2013-02-10 12:30:00,
2013-02-10 08:00:00,43.2,14.6,30.39,ENE,78,0.0,13.4,31,-99.99,,,0.00,VWS V14.01,2013-02-10 13:00:00,
2013-02-10 08:30:00,43.7,14.3,30.36,SE,142,2.7,13.0,30,-99.99,,,0.00,VWS V14.01,2013-02-10 13:30:00,
2013-02-10 09:00:00,44.6,15.1,30.39,East,89,5.8,12.1,30,-99.99,,,0.00,VWS V14.01,2013-02-10 14:00:00,
2013-02-10 09:30:00,45.1,15.6,30.39,SSW,199,7.4,12.5,30,-99.99,,,0.00,VWS V14.01,2013-02-10 14:30:00,
2013-02-10 10:00:00,46.0,15.6,30.39,North,10,4.9,16.3,29,-99.99,,,0.00,VWS V14.01,2013-02-10 15:00:00,
2013-02-10 10:30:00,46.9,15.6,30.39,ENE,62,0.0,13.9,28,-99.99,,,0.00,VWS V14.01,2013-02-10 15:30:00,
2013-02-10 11:00:00,47.8,9.8,30.36,NE,51,4.0,19.9,21,-99.99,,,0.00,VWS V14.01,2013-02-10 16:00:00,
2013-02-10 11:30:00,49.8,2.5,30.36,WNW,294,3.1,17.7,14,-99.99,,,0.00,VWS V14.01,2013-02-10 16:30:00,
2013-02-10 12:00:00,51.1,2.0,30.36,West,267,0.0,24.4,13,-99.99,,,0.00,VWS V14.01,2013-02-10 17:00:00,
2013-02-10 12:30:00,52.0,-0.9,30.30,WSW,240,5.4,18.1,11,-99.99,,,0.00,VWS V14.01,2013-02-10 17:30:00,
2013-02-10 13:00:00,52.7,-0.3,30.30,NNE,30,4.5,15.9,11,-99.99,,,0.00,VWS V14.01,2013-02-10 18:00:00,
2013-02-10 13:30:00,53.1,-2.1,30.30,West,259,7.8,17.2,10,-99.99,,,0.00,VWS V14.01,2013-02-10 18:30:00,
2013-02-10 14:00:00,53.4,-1.8,30.27,ENE,78,2.7,13.9,10,-99.99,,,0.00,VWS V14.01,2013-02-10 19:00:00,
2013-02-10 14:30:00,52.0,-0.9,30.27,WSW,237,4.0,14.3,11,-99.99,,,0.00,VWS V14.01,2013-02-10 19:30:00,
2013-02-10 15:00:00,51.4,20.3,30.24,SSW,210,0.0,13.4,29,-99.99,,,0.00,VWS V14.01,2013-02-10 20:00:00,
2013-02-10 15:30:00,49.1,29.2,30.24,SW,235,5.4,16.3,46,-99.99,,,0.00,VWS V14.01,2013-02-10 20:30:00,
2013-02-10 16:00:00,47.1,33.1,30.24,SE,135,6.3,13.9,58,-99.99,,,0.00,VWS V14.01,2013-02-10 21:00:00,
2013-02-10 16:30:00,45.5,36.7,30.24,SW,233,0.0,17.2,71,-99.99,,,0.12,VWS V14.01,2013-02-10 21:30:00,
2013-02-10 17:00:00,44.2,36.8,30.24,South,189,5.4,15.9,75,-99.99,,,0.20,VWS V14.01,2013-02-10 22:00:00,
2013-02-10 17:30:00,43.0,37.6,30.24,ESE,111,8.7,13.9,81,-99.99,,,0.35,VWS V14.01,2013-02-10 22:30:00,
2013-02-10 18:00:00,42.8,38.6,30.24,ENE,69,5.4,18.1,85,-99.99,,,0.43,VWS V14.01,2013-02-10 23:00:00,
2013-02-10 18:30:00,42.8,39.2,30.24,ESE,105,9.6,16.8,87,-99.99,,,0.51,VWS V14.01,2013-02-10 23:30:00,
2013-02-10 19:00:00,42.8,39.8,30.24,ESE,122,9.6,18.1,89,-99.99,,,0.51,VWS V14.01,2013-02-11 00:00:00,
2013-02-10 19:30:00,43.3,40.9,30.27,SE,127,11.6,16.8,91,-99.99,,,0.59,VWS V14.01,2013-02-11 00:30:00,
2013-02-10 20:00:00,43.5,41.3,30.27,ESE,123,9.6,24.8,92,-99.99,,,0.67,VWS V14.01,2013-02-11 01:00:00,
2013-02-10 20:30:00,44.1,42.2,30.21,East,91,7.8,19.5,93,-99.99,,,0.67,VWS V14.01,2013-02-11 01:30:00,
2013-02-10 21:00:00,44.8,43.2,30.21,ENE,64,4.9,21.9,94,-99.99,,,0.67,VWS V14.01,2013-02-11 02:00:00,
2013-02-10 21:30:00,45.1,43.8,30.21,SSE,166,6.3,17.2,95,-99.99,,,0.67,VWS V14.01,2013-02-11 02:30:00,
2013-02-10 22:00:00,46.0,44.7,30.21,East,86,9.2,15.9,95,-99.99,,,0.67,VWS V14.01,2013-02-11 03:00:00,
2013-02-10 22:30:00,47.1,46.0,30.21,East,80,9.2,13.4,96,-99.99,,,0.67,VWS V14.01,2013-02-11 03:30:00,
2013-02-10 23:00:00,47.8,46.8,30.21,SSE,150,5.4,15.2,96,-99.99,,,0.67,VWS V14.01,2013-02-11 04:00:00,
2013-02-10 23:30:00,48.4,47.3,30.21,ENE,78,3.1,19.5,96,-99.99,,,0.67,VWS V14.01,2013-02-11 04:30:00,